sensor_id;sensor_type;location;lat;lon;timestamp;pressure;altitude;pressure_sealevel;temperature;humidity
42705;BME280;28342;42.594;23.414;2023-07-24T00:01:01;94800.97;;;20.35;68.15
42705;BME280;28342;42.594;23.414;2023-07-24T00:03:27;94800.28;;;20.38;69.19
42705;BME280;28342;42.594;23.414;2023-07-24T00:05:52;94805.22;;;20.36;69.37
42705;BME280;28342;42.594;23.414;2023-07-24T00:08:18;94801.84;;;20.39;69.19
42705;BME280;28342;42.594;23.414;2023-07-24T00:10:43;94806.38;;;20.35;69.32
42705;BME280;28342;42.594;23.414;2023-07-24T00:13:08;94795.44;;;20.24;69.38
42705;BME280;28342;42.594;23.414;2023-07-24T00:15:34;94799.38;;;20.30;68.86
42705;BME280;28342;42.594;23.414;2023-07-24T00:17:59;94793.34;;;20.37;68.67
42705;BME280;28342;42.594;23.414;2023-07-24T00:20:25;94790.94;;;20.32;69.63
42705;BME280;28342;42.594;23.414;2023-07-24T00:22:51;94797.16;;;20.36;69.21
42705;BME280;28342;42.594;23.414;2023-07-24T00:25:16;94789.44;;;20.35;69.71
42705;BME280;28342;42.594;23.414;2023-07-24T00:27:42;94784.78;;;20.32;69.78
42705;BME280;28342;42.594;23.414;2023-07-24T00:30:08;94784.34;;;20.29;68.94
42705;BME280;28342;42.594;23.414;2023-07-24T00:32:33;94790.88;;;20.28;69.31
42705;BME280;28342;42.594;23.414;2023-07-24T00:34:59;94789.28;;;20.24;70.09
42705;BME280;28342;42.594;23.414;2023-07-24T00:37:24;94790.84;;;20.25;69.74
42705;BME280;28342;42.594;23.414;2023-07-24T00:39:50;94789.16;;;20.17;70.43
42705;BME280;28342;42.594;23.414;2023-07-24T00:42:15;94780.72;;;20.18;70.14
42705;BME280;28342;42.594;23.414;2023-07-24T00:44:41;94780.78;;;20.22;69.85
42705;BME280;28342;42.594;23.414;2023-07-24T00:47:07;94791.25;;;20.27;69.13
42705;BME280;28342;42.594;23.414;2023-07-24T00:49:32;94788.56;;;20.27;68.62
42705;BME280;28342;42.594;23.414;2023-07-24T00:51:58;94784.72;;;20.28;68.23
42705;BME280;28342;42.594;23.414;2023-07-24T00:54:24;94785.13;;;20.30;69.52
42705;BME280;28342;42.594;23.414;2023-07-24T00:56:49;94787.81;;;20.30;70.14
42705;BME280;28342;42.594;23.414;2023-07-24T00:59:15;94780.34;;;20.20;70.00
42705;BME280;28342;42.594;23.414;2023-07-24T01:01:42;94781.50;;;20.19;69.77
42705;BME280;28342;42.594;23.414;2023-07-24T01:04:08;94786.94;;;20.22;69.20
42705;BME280;28342;42.594;23.414;2023-07-24T01:06:33;94790.44;;;20.23;68.98
42705;BME280;28342;42.594;23.414;2023-07-24T01:08:59;94787.91;;;20.11;70.57
42705;BME280;28342;42.594;23.414;2023-07-24T01:11:28;94780.19;;;20.09;70.51
42705;BME280;28342;42.594;23.414;2023-07-24T01:14:04;94771.94;;;19.98;71.09
42705;BME280;28342;42.594;23.414;2023-07-24T01:16:37;94768.09;;;19.99;71.43
42705;BME280;28342;42.594;23.414;2023-07-24T01:19:11;94774.28;;;20.00;70.69
42705;BME280;28342;42.594;23.414;2023-07-24T01:22:02;94783.94;;;20.05;69.20
42705;BME280;28342;42.594;23.414;2023-07-24T01:24:38;94778.88;;;19.99;70.10
42705;BME280;28342;42.594;23.414;2023-07-24T01:27:07;94774.88;;;19.90;69.92
42705;BME280;28342;42.594;23.414;2023-07-24T01:29:32;94782.47;;;19.84;69.98
42705;BME280;28342;42.594;23.414;2023-07-24T01:31:58;94784.44;;;19.87;70.14
42705;BME280;28342;42.594;23.414;2023-07-24T01:34:23;94783.66;;;19.87;70.56
42705;BME280;28342;42.594;23.414;2023-07-24T01:36:49;94787.91;;;19.88;70.80
42705;BME280;28342;42.594;23.414;2023-07-24T01:39:19;94783.25;;;19.85;71.41
42705;BME280;28342;42.594;23.414;2023-07-24T01:41:45;94773.56;;;19.80;71.68
42705;BME280;28342;42.594;23.414;2023-07-24T01:44:11;94778.63;;;19.85;71.76
42705;BME280;28342;42.594;23.414;2023-07-24T01:46:36;94779.72;;;19.81;71.95
42705;BME280;28342;42.594;23.414;2023-07-24T01:49:02;94784.59;;;19.75;71.58
42705;BME280;28342;42.594;23.414;2023-07-24T01:51:27;94777.41;;;19.60;73.14
42705;BME280;28342;42.594;23.414;2023-07-24T01:53:53;94779.13;;;19.68;72.32
42705;BME280;28342;42.594;23.414;2023-07-24T01:56:18;94782.94;;;19.67;71.85
42705;BME280;28342;42.594;23.414;2023-07-24T01:58:44;94777.41;;;19.60;72.15
42705;BME280;28342;42.594;23.414;2023-07-24T02:01:10;94788.13;;;19.56;71.97
42705;BME280;28342;42.594;23.414;2023-07-24T02:03:35;94795.41;;;19.36;66.89
42705;BME280;28342;42.594;23.414;2023-07-24T02:06:01;94796.97;;;19.37;65.80
42705;BME280;28342;42.594;23.414;2023-07-24T02:08:26;94781.81;;;19.29;69.31
42705;BME280;28342;42.594;23.414;2023-07-24T02:10:51;94796.97;;;19.37;71.36
42705;BME280;28342;42.594;23.414;2023-07-24T02:13:17;94783.53;;;19.37;71.74
42705;BME280;28342;42.594;23.414;2023-07-24T02:15:43;94784.50;;;19.29;72.85
42705;BME280;28342;42.594;23.414;2023-07-24T02:18:09;94789.13;;;19.29;72.88
42705;BME280;28342;42.594;23.414;2023-07-24T02:20:34;94790.75;;;19.14;72.55
42705;BME280;28342;42.594;23.414;2023-07-24T02:23:00;94788.16;;;19.18;71.20
42705;BME280;28342;42.594;23.414;2023-07-24T02:25:25;94759.91;;;19.08;70.05
42705;BME280;28342;42.594;23.414;2023-07-24T02:27:50;94784.16;;;19.11;70.73
42705;BME280;28342;42.594;23.414;2023-07-24T02:30:16;94774.41;;;19.23;71.62
42705;BME280;28342;42.594;23.414;2023-07-24T02:32:41;94770.50;;;19.20;73.11
42705;BME280;28342;42.594;23.414;2023-07-24T02:35:07;94768.97;;;19.19;74.31
42705;BME280;28342;42.594;23.414;2023-07-24T02:37:33;94768.97;;;19.19;73.59
42705;BME280;28342;42.594;23.414;2023-07-24T02:39:58;94768.97;;;19.19;73.73
42705;BME280;28342;42.594;23.414;2023-07-24T02:42:23;94772.50;;;19.23;74.48
42705;BME280;28342;42.594;23.414;2023-07-24T02:44:49;94774.47;;;19.26;72.51
42705;BME280;28342;42.594;23.414;2023-07-24T02:47:14;94772.19;;;19.28;72.49
42705;BME280;28342;42.594;23.414;2023-07-24T02:49:40;94776.72;;;19.24;73.60
42705;BME280;28342;42.594;23.414;2023-07-24T02:52:08;94775.13;;;19.20;73.71
42705;BME280;28342;42.594;23.414;2023-07-24T02:54:33;94772.38;;;19.16;73.96
42705;BME280;28342;42.594;23.414;2023-07-24T02:56:59;94778.00;;;19.11;73.03
42705;BME280;28342;42.594;23.414;2023-07-24T02:59:24;94769.94;;;19.11;73.27
42705;BME280;28342;42.594;23.414;2023-07-24T03:01:50;94777.28;;;19.14;73.59
42705;BME280;28342;42.594;23.414;2023-07-24T03:04:15;94780.69;;;19.11;73.54
42705;BME280;28342;42.594;23.414;2023-07-24T03:06:41;94769.31;;;18.98;70.85
42705;BME280;28342;42.594;23.414;2023-07-24T03:09:06;94777.47;;;19.02;69.77
42705;BME280;28342;42.594;23.414;2023-07-24T03:11:32;94759.41;;;19.02;68.24
42705;BME280;28342;42.594;23.414;2023-07-24T03:13:57;94751.06;;;18.88;70.22
42705;BME280;28342;42.594;23.414;2023-07-24T03:16:22;94750.66;;;18.86;72.35
42705;BME280;28342;42.594;23.414;2023-07-24T03:18:48;94763.84;;;18.95;73.03
42705;BME280;28342;42.594;23.414;2023-07-24T03:21:13;94738.97;;;18.78;73.24
42705;BME280;28342;42.594;23.414;2023-07-24T03:23:39;94765.41;;;18.96;73.92
42705;BME280;28342;42.594;23.414;2023-07-24T03:26:04;94765.84;;;18.98;73.74
42705;BME280;28342;42.594;23.414;2023-07-24T03:28:29;94760.47;;;18.98;71.86
42705;BME280;28342;42.594;23.414;2023-07-24T03:30:55;94756.63;;;18.79;70.06
42705;BME280;28342;42.594;23.414;2023-07-24T03:33:20;94753.09;;;18.75;69.99
42705;BME280;28342;42.594;23.414;2023-07-24T03:35:46;94772.22;;;18.90;70.86
42705;BME280;28342;42.594;23.414;2023-07-24T03:38:11;94761.47;;;18.90;71.26
42705;BME280;28342;42.594;23.414;2023-07-24T03:40:37;94771.84;;;18.91;71.75
42705;BME280;28342;42.594;23.414;2023-07-24T03:43:02;94766.91;;;18.93;71.19
42705;BME280;28342;42.594;23.414;2023-07-24T03:45:28;94763.78;;;18.91;71.98
42705;BME280;28342;42.594;23.414;2023-07-24T03:47:53;94765.13;;;18.81;73.25
42705;BME280;28342;42.594;23.414;2023-07-24T03:50:18;94779.16;;;18.91;73.74
42705;BME280;28342;42.594;23.414;2023-07-24T03:52:44;94775.25;;;18.88;73.06
42705;BME280;28342;42.594;23.414;2023-07-24T03:55:09;94779.69;;;18.80;73.36
42705;BME280;28342;42.594;23.414;2023-07-24T03:57:35;94775.63;;;18.87;73.62
42705;BME280;28342;42.594;23.414;2023-07-24T04:00:02;94780.88;;;18.83;73.61
42705;BME280;28342;42.594;23.414;2023-07-24T04:02:27;94785.94;;;18.85;73.46
42705;BME280;28342;42.594;23.414;2023-07-24T04:04:53;94790.09;;;18.82;73.73
42705;BME280;28342;42.594;23.414;2023-07-24T04:07:18;94790.44;;;18.80;74.74
42705;BME280;28342;42.594;23.414;2023-07-24T04:09:44;94777.53;;;18.86;73.84
42705;BME280;28342;42.594;23.414;2023-07-24T04:12:09;94772.94;;;18.87;73.24
42705;BME280;28342;42.594;23.414;2023-07-24T04:14:34;94773.78;;;18.91;72.92
42705;BME280;28342;42.594;23.414;2023-07-24T04:17:00;94788.06;;;18.95;72.78
42705;BME280;28342;42.594;23.414;2023-07-24T04:19:25;94784.66;;;18.98;72.98
42705;BME280;28342;42.594;23.414;2023-07-24T04:21:51;94773.22;;;19.01;72.02
42705;BME280;28342;42.594;23.414;2023-07-24T04:24:16;94783.19;;;19.00;72.96
42705;BME280;28342;42.594;23.414;2023-07-24T04:26:41;94782.13;;;19.05;73.64
42705;BME280;28342;42.594;23.414;2023-07-24T04:29:07;94789.47;;;19.08;74.20
42705;BME280;28342;42.594;23.414;2023-07-24T04:31:33;94789.53;;;19.11;72.54
42705;BME280;28342;42.594;23.414;2023-07-24T04:33:58;94796.34;;;19.25;72.26
42705;BME280;28342;42.594;23.414;2023-07-24T04:36:24;94793.72;;;19.28;70.79
42705;BME280;28342;42.594;23.414;2023-07-24T04:38:49;94782.88;;;19.25;70.47
42705;BME280;28342;42.594;23.414;2023-07-24T04:41:15;94786.09;;;19.30;70.72
42705;BME280;28342;42.594;23.414;2023-07-24T04:43:40;94787.81;;;19.42;69.87
42705;BME280;28342;42.594;23.414;2023-07-24T04:46:05;94791.94;;;19.55;68.84
42705;BME280;28342;42.594;23.414;2023-07-24T04:48:31;94780.41;;;19.55;69.30
42705;BME280;28342;42.594;23.414;2023-07-24T04:50:56;94777.28;;;19.53;68.14
42705;BME280;28342;42.594;23.414;2023-07-24T04:53:22;94789.88;;;19.68;67.83
42705;BME280;28342;42.594;23.414;2023-07-24T04:55:48;94790.28;;;19.70;68.29
42705;BME280;28342;42.594;23.414;2023-07-24T04:58:14;94792.69;;;19.75;69.45
42705;BME280;28342;42.594;23.414;2023-07-24T05:00:39;94793.91;;;19.78;70.40
42705;BME280;28342;42.594;23.414;2023-07-24T05:03:05;94782.47;;;19.84;67.49
42705;BME280;28342;42.594;23.414;2023-07-24T05:05:37;94775.63;;;19.90;67.52
42705;BME280;28342;42.594;23.414;2023-07-24T05:08:03;94788.09;;;19.98;68.58
42705;BME280;28342;42.594;23.414;2023-07-24T05:10:28;94785.81;;;20.00;67.38
42705;BME280;28342;42.594;23.414;2023-07-24T05:12:54;94797.25;;;20.17;67.75
42705;BME280;28342;42.594;23.414;2023-07-24T05:15:22;94780.31;;;20.16;67.97
42705;BME280;28342;42.594;23.414;2023-07-24T05:17:47;94792.41;;;20.26;66.73
42705;BME280;28342;42.594;23.414;2023-07-24T05:20:12;94796.03;;;20.37;68.93
42705;BME280;28342;42.594;23.414;2023-07-24T05:22:38;94756.88;;;20.20;68.65
42705;BME280;28342;42.594;23.414;2023-07-24T05:25:03;94787.09;;;20.33;68.60
42705;BME280;28342;42.594;23.414;2023-07-24T05:27:29;94794.28;;;20.48;68.18
42705;BME280;28342;42.594;23.414;2023-07-24T05:29:55;94795.56;;;20.54;68.06
42705;BME280;28342;42.594;23.414;2023-07-24T05:32:20;94783.63;;;20.55;67.82
42705;BME280;28342;42.594;23.414;2023-07-24T05:34:46;94801.16;;;20.69;67.88
42705;BME280;28342;42.594;23.414;2023-07-24T05:37:11;94799.69;;;20.75;68.09
42705;BME280;28342;42.594;23.414;2023-07-24T05:39:37;94798.97;;;20.81;67.22
42705;BME280;28342;42.594;23.414;2023-07-24T05:42:02;94780.13;;;20.81;67.00
42705;BME280;28342;42.594;23.414;2023-07-24T05:44:28;94792.56;;;20.89;66.80
42705;BME280;28342;42.594;23.414;2023-07-24T05:46:54;94778.94;;;20.79;68.21
42705;BME280;28342;42.594;23.414;2023-07-24T05:49:20;94783.31;;;20.91;66.70
42705;BME280;28342;42.594;23.414;2023-07-24T05:51:45;94769.47;;;20.92;65.97
42705;BME280;28342;42.594;23.414;2023-07-24T05:54:10;94775.38;;;21.01;65.87
42705;BME280;28342;42.594;23.414;2023-07-24T05:56:36;94774.31;;;21.09;65.29
42705;BME280;28342;42.594;23.414;2023-07-24T05:59:03;94772.13;;;21.18;66.67
42705;BME280;28342;42.594;23.414;2023-07-24T06:01:29;94769.22;;;21.31;65.87
42705;BME280;28342;42.594;23.414;2023-07-24T06:03:54;94763.75;;;21.27;65.63
42705;BME280;28342;42.594;23.414;2023-07-24T06:06:20;94766.59;;;21.41;65.49
42705;BME280;28342;42.594;23.414;2023-07-24T06:08:45;94754.28;;;21.44;64.53
42705;BME280;28342;42.594;23.414;2023-07-24T06:11:12;94746.19;;;21.44;64.67
42705;BME280;28342;42.594;23.414;2023-07-24T06:13:38;94731.94;;;21.43;64.88
42705;BME280;28342;42.594;23.414;2023-07-24T06:16:03;94739.47;;;21.64;66.71
42705;BME280;28342;42.594;23.414;2023-07-24T06:18:29;94752.75;;;21.84;64.82
42705;BME280;28342;42.594;23.414;2023-07-24T06:20:54;94758.25;;;21.91;63.50
42705;BME280;28342;42.594;23.414;2023-07-24T06:23:20;94750.59;;;22.03;63.30
42705;BME280;28342;42.594;23.414;2023-07-24T06:25:46;94749.56;;;22.15;63.41
42705;BME280;28342;42.594;23.414;2023-07-24T06:28:12;94748.53;;;22.30;62.70
42705;BME280;28342;42.594;23.414;2023-07-24T06:30:40;94742.38;;;22.33;63.46
42705;BME280;28342;42.594;23.414;2023-07-24T06:33:05;94743.22;;;22.45;62.42
42705;BME280;28342;42.594;23.414;2023-07-24T06:35:33;94745.63;;;22.57;63.09
42705;BME280;28342;42.594;23.414;2023-07-24T06:37:58;94752.28;;;22.77;64.49
42705;BME280;28342;42.594;23.414;2023-07-24T06:40:24;94740.72;;;22.80;63.06
42705;BME280;28342;42.594;23.414;2023-07-24T06:42:49;94741.97;;;22.97;62.81
42705;BME280;28342;42.594;23.414;2023-07-24T06:45:15;94742.41;;;23.03;63.86
42705;BME280;28342;42.594;23.414;2023-07-24T06:47:40;94757.16;;;23.23;64.36
42705;BME280;28342;42.594;23.414;2023-07-24T06:50:06;94748.31;;;23.40;63.17
42705;BME280;28342;42.594;23.414;2023-07-24T06:52:32;94754.53;;;23.51;62.14
42705;BME280;28342;42.594;23.414;2023-07-24T06:54:58;94754.59;;;23.69;62.32
42705;BME280;28342;42.594;23.414;2023-07-24T06:57:24;94747.28;;;23.88;61.76
42705;BME280;28342;42.594;23.414;2023-07-24T06:59:49;94753.88;;;24.11;61.55
42705;BME280;28342;42.594;23.414;2023-07-24T07:02:15;94757.38;;;24.33;62.36
42705;BME280;28342;42.594;23.414;2023-07-24T07:04:40;94759.66;;;24.63;62.24
42705;BME280;28342;42.594;23.414;2023-07-24T07:07:06;94763.09;;;24.89;60.53
42705;BME280;28342;42.594;23.414;2023-07-24T07:09:31;94749.88;;;25.09;59.24
42705;BME280;28342;42.594;23.414;2023-07-24T07:11:57;94765.31;;;25.29;59.19
42705;BME280;28342;42.594;23.414;2023-07-24T07:14:22;94761.28;;;25.55;57.23
42705;BME280;28342;42.594;23.414;2023-07-24T07:16:48;94748.03;;;25.72;61.62
42705;BME280;28342;42.594;23.414;2023-07-24T07:19:13;94766.78;;;26.11;57.02
42705;BME280;28342;42.594;23.414;2023-07-24T07:21:38;94740.66;;;26.24;53.32
42705;BME280;28342;42.594;23.414;2023-07-24T07:24:04;94764.47;;;26.58;54.64
42705;BME280;28342;42.594;23.414;2023-07-24T07:26:30;94762.00;;;26.74;54.83
42705;BME280;28342;42.594;23.414;2023-07-24T07:28:55;94757.03;;;27.03;55.31
42705;BME280;28342;42.594;23.414;2023-07-24T07:31:21;94752.28;;;27.10;53.89
42705;BME280;28342;42.594;23.414;2023-07-24T07:33:46;94754.34;;;27.33;54.26
42705;BME280;28342;42.594;23.414;2023-07-24T07:36:12;94746.34;;;27.50;49.18
42705;BME280;28342;42.594;23.414;2023-07-24T07:38:37;94746.97;;;27.64;49.89
42705;BME280;28342;42.594;23.414;2023-07-24T07:41:08;94753.69;;;27.83;53.23
42705;BME280;28342;42.594;23.414;2023-07-24T07:43:34;94749.41;;;28.09;52.61
42705;BME280;28342;42.594;23.414;2023-07-24T07:46:02;94752.91;;;28.37;48.51
42705;BME280;28342;42.594;23.414;2023-07-24T07:48:27;94736.47;;;28.40;49.88
42705;BME280;28342;42.594;23.414;2023-07-24T07:50:53;94747.91;;;28.55;47.17
42705;BME280;28342;42.594;23.414;2023-07-24T07:53:33;94743.94;;;28.60;49.23
42705;BME280;28342;42.594;23.414;2023-07-24T07:55:59;94754.41;;;28.84;48.13
42705;BME280;28342;42.594;23.414;2023-07-24T07:58:27;94751.00;;;29.00;48.36
42705;BME280;28342;42.594;23.414;2023-07-24T08:00:53;94762.41;;;29.35;46.46
42705;BME280;28342;42.594;23.414;2023-07-24T08:03:18;94759.59;;;29.38;45.27
42705;BME280;28342;42.594;23.414;2023-07-24T08:05:44;94757.81;;;29.52;47.81
42705;BME280;28342;42.594;23.414;2023-07-24T08:08:09;94757.03;;;29.87;44.98
42705;BME280;28342;42.594;23.414;2023-07-24T08:10:39;94751.19;;;30.05;43.21
42705;BME280;28342;42.594;23.414;2023-07-24T08:13:04;94731.91;;;29.92;43.61
42705;BME280;28342;42.594;23.414;2023-07-24T08:15:34;94739.81;;;30.23;41.98
42705;BME280;28342;42.594;23.414;2023-07-24T08:18:00;94743.41;;;30.36;41.09
42705;BME280;28342;42.594;23.414;2023-07-24T08:20:26;94740.25;;;30.38;44.28
42705;BME280;28342;42.594;23.414;2023-07-24T08:22:51;94739.47;;;30.37;41.81
42705;BME280;28342;42.594;23.414;2023-07-24T08:25:17;94738.84;;;30.62;41.70
42705;BME280;28342;42.594;23.414;2023-07-24T08:27:43;94737.53;;;30.83;41.39
42705;BME280;28342;42.594;23.414;2023-07-24T08:30:08;94740.13;;;31.03;35.66
42705;BME280;28342;42.594;23.414;2023-07-24T08:32:34;94727.25;;;30.87;34.75
42705;BME280;28342;42.594;23.414;2023-07-24T08:34:59;94708.22;;;30.96;36.33
42705;BME280;28342;42.594;23.414;2023-07-24T08:37:25;94711.84;;;31.06;35.74
42705;BME280;28342;42.594;23.414;2023-07-24T08:39:50;94714.25;;;31.33;39.22
42705;BME280;28342;42.594;23.414;2023-07-24T08:42:15;94700.78;;;31.38;39.28
42705;BME280;28342;42.594;23.414;2023-07-24T08:44:41;94705.16;;;31.36;37.79
42705;BME280;28342;42.594;23.414;2023-07-24T08:47:10;94701.47;;;31.42;36.98
42705;BME280;28342;42.594;23.414;2023-07-24T08:49:39;94692.91;;;31.53;38.37
42705;BME280;28342;42.594;23.414;2023-07-24T08:52:08;94701.03;;;31.82;38.65
42705;BME280;28342;42.594;23.414;2023-07-24T08:54:37;94700.69;;;32.18;38.48
42705;BME280;28342;42.594;23.414;2023-07-24T08:57:06;94684.56;;;32.33;38.07
42705;BME280;28342;42.594;23.414;2023-07-24T08:59:31;94694.53;;;32.39;37.55
42705;BME280;28342;42.594;23.414;2023-07-24T09:01:57;94689.72;;;32.65;36.22
42705;BME280;28342;42.594;23.414;2023-07-24T09:04:22;94696.16;;;32.84;34.58
42705;BME280;28342;42.594;23.414;2023-07-24T09:06:49;94694.03;;;32.88;36.46
42705;BME280;28342;42.594;23.414;2023-07-24T09:09:16;94691.75;;;32.87;34.86
42705;BME280;28342;42.594;23.414;2023-07-24T09:11:52;94694.59;;;33.05;35.23
42705;BME280;28342;42.594;23.414;2023-07-24T09:14:23;94696.34;;;33.34;34.32
42705;BME280;28342;42.594;23.414;2023-07-24T09:16:48;94688.59;;;33.41;34.24
42705;BME280;28342;42.594;23.414;2023-07-24T09:19:19;94690.47;;;33.53;34.04
42705;BME280;28342;42.594;23.414;2023-07-24T09:21:44;94689.81;;;33.71;34.04
42705;BME280;28342;42.594;23.414;2023-07-24T09:24:13;94678.13;;;33.89;32.65
42705;BME280;28342;42.594;23.414;2023-07-24T09:26:52;94685.22;;;34.08;32.75
42705;BME280;28342;42.594;23.414;2023-07-24T09:29:18;94680.91;;;33.98;32.90
42705;BME280;28342;42.594;23.414;2023-07-24T09:31:45;94671.50;;;34.17;32.28
42705;BME280;28342;42.594;23.414;2023-07-24T09:34:17;94677.94;;;34.33;31.52
42705;BME280;28342;42.594;23.414;2023-07-24T09:36:44;94676.44;;;34.41;32.04
42705;BME280;28342;42.594;23.414;2023-07-24T09:39:10;94675.22;;;34.60;31.31
42705;BME280;28342;42.594;23.414;2023-07-24T09:41:39;94663.28;;;34.36;29.99
42705;BME280;28342;42.594;23.414;2023-07-24T09:44:05;94663.91;;;34.49;31.23
42705;BME280;28342;42.594;23.414;2023-07-24T09:46:31;94651.34;;;34.48;32.22
42705;BME280;28342;42.594;23.414;2023-07-24T09:48:57;94656.38;;;34.59;30.73
42705;BME280;28342;42.594;23.414;2023-07-24T09:51:23;94641.25;;;34.82;31.85
42705;BME280;28342;42.594;23.414;2023-07-24T09:53:55;94643.34;;;35.05;31.87
42705;BME280;28342;42.594;23.414;2023-07-24T09:56:23;94644.28;;;35.02;30.86
42705;BME280;28342;42.594;23.414;2023-07-24T09:58:50;94620.69;;;35.10;30.00
42705;BME280;28342;42.594;23.414;2023-07-24T10:01:20;94629.81;;;35.44;31.33
42705;BME280;28342;42.594;23.414;2023-07-24T10:03:49;94623.41;;;35.28;28.55
42705;BME280;28342;42.594;23.414;2023-07-24T10:06:18;94597.94;;;35.43;29.84
42705;BME280;28342;42.594;23.414;2023-07-24T10:08:44;94612.88;;;35.60;30.26
42705;BME280;28342;42.594;23.414;2023-07-24T10:11:12;94612.50;;;35.76;30.28
42705;BME280;28342;42.594;23.414;2023-07-24T10:13:39;94622.50;;;35.64;28.71
42705;BME280;28342;42.594;23.414;2023-07-24T10:16:07;94611.25;;;35.86;30.67
42705;BME280;28342;42.594;23.414;2023-07-24T10:18:35;94617.38;;;35.81;29.66
42705;BME280;28342;42.594;23.414;2023-07-24T10:21:02;94604.22;;;35.76;30.73
42705;BME280;28342;42.594;23.414;2023-07-24T10:23:28;94608.59;;;35.92;29.42
42705;BME280;28342;42.594;23.414;2023-07-24T10:25:54;94600.09;;;36.05;29.78
42705;BME280;28342;42.594;23.414;2023-07-24T10:28:30;94590.19;;;36.13;26.87
42705;BME280;28342;42.594;23.414;2023-07-24T10:30:56;94591.97;;;36.25;25.81
42705;BME280;28342;42.594;23.414;2023-07-24T10:33:25;94592.97;;;36.13;26.43
42705;BME280;28342;42.594;23.414;2023-07-24T10:36:04;94597.84;;;36.18;25.89
42705;BME280;28342;42.594;23.414;2023-07-24T10:38:37;94601.66;;;36.20;27.13
42705;BME280;28342;42.594;23.414;2023-07-24T10:41:05;94587.63;;;36.33;26.01
42705;BME280;28342;42.594;23.414;2023-07-24T10:43:44;94580.03;;;36.19;26.11
42705;BME280;28342;42.594;23.414;2023-07-24T10:46:09;94584.53;;;36.16;27.73
42705;BME280;28342;42.594;23.414;2023-07-24T10:48:36;94588.22;;;36.37;28.30
42705;BME280;28342;42.594;23.414;2023-07-24T10:51:06;94588.50;;;36.39;29.52
42705;BME280;28342;42.594;23.414;2023-07-24T10:53:34;94591.28;;;36.54;28.75
42705;BME280;28342;42.594;23.414;2023-07-24T10:56:00;94576.44;;;36.51;28.76
42705;BME280;28342;42.594;23.414;2023-07-24T10:58:27;94571.25;;;36.44;28.21
42705;BME280;28342;42.594;23.414;2023-07-24T11:00:53;94574.16;;;36.65;28.64
42705;BME280;28342;42.594;23.414;2023-07-24T11:03:19;94557.19;;;36.72;29.26
42705;BME280;28342;42.594;23.414;2023-07-24T11:05:45;94568.69;;;36.94;30.19
42705;BME280;28342;42.594;23.414;2023-07-24T11:08:12;94564.75;;;36.86;27.64
42705;BME280;28342;42.594;23.414;2023-07-24T11:10:52;94557.75;;;36.76;28.54
42705;BME280;28342;42.594;23.414;2023-07-24T11:13:21;94561.59;;;36.64;28.21
42705;BME280;28342;42.594;23.414;2023-07-24T11:15:48;94549.66;;;36.58;27.32
42705;BME280;28342;42.594;23.414;2023-07-24T11:18:14;94555.91;;;36.43;28.16
42705;BME280;28342;42.594;23.414;2023-07-24T11:20:47;94547.75;;;36.25;28.61
42705;BME280;28342;42.594;23.414;2023-07-24T11:23:13;94543.06;;;36.55;28.29
42705;BME280;28342;42.594;23.414;2023-07-24T11:25:39;94524.31;;;36.74;29.71
42705;BME280;28342;42.594;23.414;2023-07-24T11:28:06;94533.66;;;36.91;27.61
42705;BME280;28342;42.594;23.414;2023-07-24T11:30:32;94519.28;;;36.87;26.99
42705;BME280;28342;42.594;23.414;2023-07-24T11:32:59;94532.03;;;36.70;30.00
42705;BME280;28342;42.594;23.414;2023-07-24T11:35:26;94517.34;;;36.34;29.10
42705;BME280;28342;42.594;23.414;2023-07-24T11:37:52;94517.25;;;36.05;29.55
42705;BME280;28342;42.594;23.414;2023-07-24T11:40:18;94518.44;;;36.28;31.18
42705;BME280;28342;42.594;23.414;2023-07-24T11:42:46;94514.97;;;36.57;28.83
42705;BME280;28342;42.594;23.414;2023-07-24T11:45:12;94516.97;;;36.71;27.69
42705;BME280;28342;42.594;23.414;2023-07-24T11:47:50;94505.75;;;36.89;28.16
42705;BME280;28342;42.594;23.414;2023-07-24T11:50:17;94505.22;;;37.35;27.59
42705;BME280;28342;42.594;23.414;2023-07-24T11:52:47;94502.09;;;37.27;27.04
42705;BME280;28342;42.594;23.414;2023-07-24T11:55:18;94501.38;;;36.83;28.35
42705;BME280;28342;42.594;23.414;2023-07-24T11:57:58;94482.84;;;36.59;28.29
42705;BME280;28342;42.594;23.414;2023-07-24T12:00:24;94496.03;;;36.79;27.27
42705;BME280;28342;42.594;23.414;2023-07-24T12:02:50;94506.41;;;36.99;29.13
42705;BME280;28342;42.594;23.414;2023-07-24T12:05:16;94500.94;;;37.04;27.75
42705;BME280;28342;42.594;23.414;2023-07-24T12:07:43;94486.09;;;37.02;26.05
42705;BME280;28342;42.594;23.414;2023-07-24T12:10:12;94507.44;;;37.01;28.03
42705;BME280;28342;42.594;23.414;2023-07-24T12:12:46;94484.88;;;36.88;25.87
42705;BME280;28342;42.594;23.414;2023-07-24T12:15:12;94498.53;;;36.92;26.70
42705;BME280;28342;42.594;23.414;2023-07-24T12:17:38;94479.63;;;36.61;26.23
42705;BME280;28342;42.594;23.414;2023-07-24T12:20:04;94488.19;;;36.33;27.16
42705;BME280;28342;42.594;23.414;2023-07-24T12:22:31;94486.44;;;36.21;26.58
42705;BME280;28342;42.594;23.414;2023-07-24T12:24:57;94496.50;;;36.09;26.71
42705;BME280;28342;42.594;23.414;2023-07-24T12:27:24;94495.56;;;36.27;28.52
42705;BME280;28342;42.594;23.414;2023-07-24T12:29:51;94492.78;;;36.51;27.09
42705;BME280;28342;42.594;23.414;2023-07-24T12:32:16;94471.63;;;36.63;27.93
42705;BME280;28342;42.594;23.414;2023-07-24T12:34:43;94489.13;;;37.04;28.04
42705;BME280;28342;42.594;23.414;2023-07-24T12:37:18;94491.25;;;36.94;25.58
42705;BME280;28342;42.594;23.414;2023-07-24T12:39:45;94474.28;;;36.72;25.40
42705;BME280;28342;42.594;23.414;2023-07-24T12:42:10;94474.06;;;37.05;25.47
42705;BME280;28342;42.594;23.414;2023-07-24T12:44:36;94483.72;;;37.09;26.18
42705;BME280;28342;42.594;23.414;2023-07-24T12:47:03;94468.09;;;36.92;27.72